Time;durP1;ratioP1;P1;durP2;ratioP2;P2;SDS_P1;SDS_P2;PMS_P1;PMS_P2;Temp;Humidity;BMP_temperature;BMP_pressure;BME280_temperature;BME280_humidity;BME280_pressure;Samples;Min_cycle;Max_cycle;Signal;HPM_P1;HPM_P2
2023/10/10 00:01:00;;;;;;;20.92;14.95;;;17.20;99.90;;;;;;4955663;29;20046;-85
2023/10/10 00:03:27;;;;;;;21.98;16.15;;;17.30;99.90;;;;;;4955198;29;20098;-85
2023/10/10 00:05:58;;;;;;;25.08;16.38;;;17.20;99.90;;;;;;4954764;29;20483;-85
2023/10/10 00:08:34;;;;;;;24.35;16.23;;;17.20;99.90;;;;;;4954537;29;20039;-85
2023/10/10 00:11:00;;;;;;;22.65;16.45;;;17.20;99.90;;;;;;4954955;29;20035;-86
2023/10/10 00:13:26;;;;;;;24.65;16.38;;;17.20;99.90;;;;;;4954926;29;20035;-85
2023/10/10 00:16:05;;;;;;;21.42;16.52;;;17.20;99.90;;;;;;4954846;29;20462;-85
2023/10/10 00:18:32;;;;;;;23.70;16.30;;;17.10;99.90;;;;;;4954703;29;20059;-85
2023/10/10 00:21:06;;;;;;;22.67;15.55;;;17.10;99.90;;;;;;4954723;29;20019;-85
2023/10/10 00:23:47;;;;;;;25.08;16.73;;;17.10;99.90;;;;;;4953035;28;20114;-85
2023/10/10 00:26:26;;;;;;;21.85;15.82;;;17.10;99.90;;;;;;4954924;29;20064;-85
2023/10/10 00:28:56;;;;;;;23.17;17.13;;;17.10;99.90;;;;;;4953481;28;20023;-85
2023/10/10 00:31:24;;;;;;;23.80;15.35;;;17.10;99.90;;;;;;4954934;29;20027;-85
2023/10/10 00:33:51;;;;;;;23.65;16.73;;;17.10;99.90;;;;;;4954596;29;20484;-85
2023/10/10 00:39:22;;;;;;;23.08;15.63;;;17.00;99.90;;;;;;4954538;29;20027;-84
2023/10/10 00:41:53;;;;;;;23.98;16.48;;;17.00;99.90;;;;;;4957306;28;20455;-84
2023/10/10 00:44:19;;;;;;;24.33;16.38;;;16.90;99.90;;;;;;4958388;29;20031;-84
2023/10/10 00:46:51;;;;;;;20.63;16.58;;;17.00;99.90;;;;;;4958389;29;20038;-85
2023/10/10 00:49:23;;;;;;;23.48;15.32;;;16.90;99.90;;;;;;4957917;29;20071;-84
2023/10/10 00:51:51;;;;;;;26.95;16.90;;;16.90;99.90;;;;;;4958084;29;20035;-84
2023/10/10 00:56:52;;;;;;;27.75;17.30;;;16.90;99.90;;;;;;4957872;29;20063;-84
2023/10/10 00:59:18;;;;;;;25.70;17.83;;;16.80;99.90;;;;;;4956618;29;20028;-84
2023/10/10 01:01:45;;;;;;;23.70;17.35;;;16.80;99.90;;;;;;4958232;29;20484;-84
2023/10/10 01:04:12;;;;;;;27.65;17.70;;;16.80;99.90;;;;;;4957903;29;20083;-84
2023/10/10 01:06:39;;;;;;;21.67;17.27;;;16.80;99.90;;;;;;4957713;29;20091;-85
2023/10/10 01:09:20;;;;;;;27.92;17.88;;;16.70;99.90;;;;;;4957756;29;20500;-84
2023/10/10 01:11:49;;;;;;;25.75;17.65;;;16.70;99.90;;;;;;4957728;29;20563;-84
2023/10/10 01:14:18;;;;;;;23.65;16.88;;;16.70;99.90;;;;;;4956520;29;20432;-84
2023/10/10 01:16:54;;;;;;;23.60;17.30;;;16.70;99.90;;;;;;4957387;29;20039;-84
2023/10/10 01:19:21;;;;;;;24.85;17.75;;;16.70;99.90;;;;;;4956279;29;20036;-85
2023/10/10 01:21:57;;;;;;;23.70;16.73;;;16.70;99.90;;;;;;4957388;29;20447;-84
2023/10/10 01:24:24;;;;;;;26.05;17.95;;;16.70;99.90;;;;;;4957517;29;20046;-85
2023/10/10 01:26:51;;;;;;;23.48;17.52;;;16.60;99.90;;;;;;4957686;29;20070;-85
2023/10/10 01:29:26;;;;;;;22.20;16.95;;;16.60;99.90;;;;;;4957355;29;20035;-84
2023/10/10 01:31:58;;;;;;;23.92;16.92;;;16.60;99.90;;;;;;4957675;29;20510;-84
2023/10/10 01:34:31;;;;;;;25.70;18.70;;;16.60;99.90;;;;;;4957150;29;20491;-84
2023/10/10 01:37:07;;;;;;;26.55;19.20;;;16.60;99.90;;;;;;4939641;29;20505;-84
2023/10/10 01:39:54;;;;;;;27.20;18.77;;;16.60;99.90;;;;;;4957155;29;20517;-84
2023/10/10 01:42:31;;;;;;;23.90;17.00;;;16.50;99.90;;;;;;4957092;29;20035;-84
2023/10/10 01:44:57;;;;;;;26.33;18.50;;;16.50;99.90;;;;;;4957256;29;20155;-84
2023/10/10 01:47:26;;;;;;;26.60;18.52;;;16.50;99.90;;;;;;4957288;29;20039;-84
2023/10/10 01:49:53;;;;;;;27.63;17.35;;;16.40;99.90;;;;;;4957043;29;20106;-84
2023/10/10 01:52:21;;;;;;;25.80;17.88;;;16.40;99.90;;;;;;4939399;29;20039;-84
2023/10/10 01:54:52;;;;;;;27.73;17.90;;;16.30;99.90;;;;;;4956898;29;20611;-84
2023/10/10 01:57:21;;;;;;;21.50;17.38;;;16.30;99.90;;;;;;4957225;29;20118;-84
2023/10/10 01:59:48;;;;;;;25.95;17.42;;;16.30;99.90;;;;;;4955665;29;20038;-84
2023/10/10 02:02:16;;;;;;;26.17;19.27;;;16.20;99.90;;;;;;4956946;29;20039;-83
2023/10/10 02:04:45;;;;;;;25.08;18.92;;;16.20;99.90;;;;;;4956454;29;20031;-84
2023/10/10 02:07:21;;;;;;;28.00;20.65;;;16.20;99.90;;;;;;4956784;29;20095;-84
2023/10/10 02:09:53;;;;;;;27.08;19.83;;;16.20;99.90;;;;;;4956729;29;20034;-84
2023/10/10 02:12:22;;;;;;;25.77;18.77;;;16.10;99.90;;;;;;4956646;29;20507;-84
2023/10/10 02:14:48;;;;;;;25.52;19.58;;;16.10;99.90;;;;;;4956264;29;20134;-83
2023/10/10 02:17:26;;;;;;;26.65;18.52;;;16.10;99.90;;;;;;4955279;28;20066;-84
2023/10/10 02:20:18;;;;;;;26.20;20.30;;;16.10;99.90;;;;;;4956269;29;20399;-84
2023/10/10 02:22:48;;;;;;;26.95;19.25;;;16.10;99.90;;;;;;4955101;29;20059;-84
2023/10/10 02:30:41;;;;;;;28.80;20.23;;;16.00;99.90;;;;;;4956853;29;20134;-84
2023/10/10 02:33:15;;;;;;;28.75;20.42;;;16.00;99.90;;;;;;4956496;29;20071;-84
2023/10/10 02:38:33;;;;;;;27.63;19.25;;;15.90;99.90;;;;;;4957345;29;20066;-83
2023/10/10 02:41:38;;;;;;;25.13;17.45;;;15.90;99.90;;;;;;4956175;29;20122;-84
2023/10/10 02:46:36;;;;;;;26.88;18.02;;;15.90;99.90;;;;;;4956206;29;20082;-84
2023/10/10 02:49:22;;;;;;;24.92;16.50;;;15.90;99.90;;;;;;4955505;29;20027;-84
2023/10/10 02:51:49;;;;;;;23.02;16.25;;;15.80;99.90;;;;;;4956119;29;20471;-84
2023/10/10 02:54:35;;;;;;;20.90;13.77;;;15.80;99.90;;;;;;4956315;29;20032;-83
2023/10/10 02:59:51;;;;;;;19.85;14.25;;;15.80;99.90;;;;;;4956361;29;20098;-84
2023/10/10 03:02:22;;;;;;;18.02;13.32;;;15.80;99.90;;;;;;4955524;29;20043;-84
2023/10/10 03:07:29;;;;;;;22.88;15.57;;;15.70;99.90;;;;;;4956367;29;20042;-85
2023/10/10 03:10:22;;;;;;;31.20;20.15;;;15.80;99.90;;;;;;4956161;29;20031;-84
2023/10/10 03:12:52;;;;;;;28.60;18.95;;;15.70;99.90;;;;;;4938319;29;20027;-83
2023/10/10 03:17:49;;;;;;;43.47;22.38;;;15.70;99.90;;;;;;4955288;29;20050;-85
2023/10/10 03:26:04;;;;;;;94.20;25.35;;;15.80;99.90;;;;;;4955374;29;20039;-84
2023/10/10 03:28:34;;;;;;;69.53;24.10;;;15.80;99.90;;;;;;4955508;29;20045;-85
2023/10/10 03:31:10;;;;;;;60.30;24.05;;;15.80;99.90;;;;;;4955054;29;20035;-84
2023/10/10 03:34:03;;;;;;;79.05;24.95;;;15.80;99.90;;;;;;4953947;29;20134;-84
2023/10/10 03:36:39;;;;;;;56.63;24.20;;;15.70;99.90;;;;;;4955254;29;20035;-85
2023/10/10 05:25:55;;;;;;;54.28;28.30;;;15.80;99.90;;;;;;4957982;28;20058;-82
2023/10/10 05:28:22;;;;;;;47.25;25.58;;;15.80;99.90;;;;;;4958037;28;20063;-82
2023/10/10 05:30:48;;;;;;;65.88;29.35;;;15.80;99.90;;;;;;4969353;28;20031;-81
2023/10/10 05:33:14;;;;;;;56.80;29.30;;;15.80;99.90;;;;;;4976230;28;20027;-82
2023/10/10 05:35:47;;;;;;;49.78;27.95;;;15.80;99.90;;;;;;4976687;28;20506;-82
2023/10/10 05:38:15;;;;;;;48.22;28.75;;;15.80;99.90;;;;;;4976435;28;20034;-81
2023/10/10 05:40:43;;;;;;;47.67;29.75;;;15.80;99.90;;;;;;4976074;28;20042;-81
2023/10/10 05:43:09;;;;;;;45.40;27.40;;;15.80;99.90;;;;;;4976151;28;20035;-81
2023/10/10 05:45:38;;;;;;;48.70;30.83;;;15.80;99.90;;;;;;4976301;28;20063;-82
2023/10/10 05:48:08;;;;;;;43.92;28.95;;;15.80;99.90;;;;;;4976360;28;20058;-84
2023/10/10 05:50:34;;;;;;;53.58;34.00;;;15.80;99.90;;;;;;4976326;28;20398;-82
2023/10/10 05:53:07;;;;;;;49.88;31.98;;;15.80;99.90;;;;;;4958880;28;20027;-83
2023/10/10 05:55:37;;;;;;;48.60;30.65;;;15.80;99.90;;;;;;4975118;28;20039;-84
2023/10/10 05:58:03;;;;;;;45.40;31.70;;;15.80;99.90;;;;;;4967258;28;20115;-82
2023/10/10 06:00:36;;;;;;;53.83;34.72;;;15.80;99.90;;;;;;4975955;28;20027;-82
2023/10/10 06:03:05;;;;;;;50.53;32.03;;;15.80;99.90;;;;;;4976328;28;20034;-82
2023/10/10 06:05:32;;;;;;;54.75;33.70;;;15.80;99.90;;;;;;4958174;28;20035;-83
2023/10/10 06:07:59;;;;;;;52.08;33.40;;;15.80;99.90;;;;;;4965332;28;20476;-83
2023/10/10 06:10:28;;;;;;;47.72;31.52;;;15.80;99.90;;;;;;4964812;28;20078;-83
2023/10/10 06:12:57;;;;;;;52.17;32.55;;;15.70;99.90;;;;;;4963899;28;20031;-83
2023/10/10 06:15:23;;;;;;;58.17;34.78;;;15.80;99.90;;;;;;4941355;28;20031;-83
2023/10/10 06:17:49;;;;;;;54.25;34.67;;;15.70;99.90;;;;;;4945687;28;20046;-83
2023/10/10 06:20:21;;;;;;;53.28;33.47;;;15.70;99.90;;;;;;4970644;28;20109;-84
2023/10/10 06:22:48;;;;;;;50.95;32.10;;;15.70;99.90;;;;;;4963663;28;20491;-84
2023/10/10 06:25:17;;;;;;;53.53;34.72;;;15.80;99.90;;;;;;4948287;28;20475;-84
2023/10/10 06:27:54;;;;;;;50.95;33.70;;;15.70;99.90;;;;;;4965816;28;20043;-83
2023/10/10 06:30:20;;;;;;;55.30;36.25;;;15.70;99.90;;;;;;4975800;28;20027;-83
2023/10/10 06:32:47;;;;;;;55.17;33.88;;;15.70;99.90;;;;;;4975613;28;20035;-83
2023/10/10 06:37:55;;;;;;;59.58;36.70;;;15.70;99.90;;;;;;4975240;28;20496;-82
2023/10/10 06:40:30;;;;;;;60.45;38.10;;;15.70;99.90;;;;;;4956976;28;20030;-82
2023/10/10 06:42:56;;;;;;;58.33;36.90;;;15.70;99.90;;;;;;4975186;28;20027;-82
2023/10/10 06:45:26;;;;;;;57.80;38.72;;;15.60;99.90;;;;;;4975244;28;20034;-82
2023/10/10 06:47:52;;;;;;;58.10;39.40;;;15.60;99.90;;;;;;4975525;28;20039;-82
2023/10/10 06:50:24;;;;;;;64.53;40.20;;;15.60;99.90;;;;;;4975363;28;20502;-81
2023/10/10 06:52:54;;;;;;;59.60;41.38;;;15.60;99.90;;;;;;4975219;28;20031;-84
2023/10/10 06:55:24;;;;;;;62.80;40.10;;;15.60;99.90;;;;;;4985130;28;20069;-81
2023/10/10 06:57:58;;;;;;;57.38;38.70;;;15.60;99.90;;;;;;4994637;28;20042;-81
2023/10/10 07:03:18;;;;;;;61.03;38.75;;;15.60;99.90;;;;;;4994795;28;20118;-82
2023/10/10 07:05:48;;;;;;;59.63;39.13;;;15.70;99.90;;;;;;4965373;28;20039;-82
2023/10/10 07:08:19;;;;;;;64.68;39.78;;;15.70;99.90;;;;;;4964568;28;20035;-83
2023/10/10 07:10:45;;;;;;;62.13;38.60;;;15.70;99.90;;;;;;4957565;28;20032;-83
2023/10/10 07:13:18;;;;;;;56.53;36.60;;;15.70;99.90;;;;;;4954464;29;20036;-82
2023/10/10 07:15:51;;;;;;;51.90;34.38;;;15.70;99.90;;;;;;4957084;28;20038;-83
2023/10/10 07:18:22;;;;;;;50.00;33.42;;;15.70;99.90;;;;;;4964925;28;20030;-83
2023/10/10 07:24:04;;;;;;;46.80;33.60;;;15.70;99.90;;;;;;4895557;29;20497;-83
2023/10/10 07:26:31;;;;;;;44.65;30.95;;;15.80;99.90;;;;;;4949371;28;20050;-82
2023/10/10 07:29:20;;;;;;;43.53;31.73;;;15.80;99.90;;;;;;4943203;28;20523;-83
2023/10/10 07:31:43;;;;;;;45.75;32.50;;;15.80;99.90;;;;;;4973832;28;20097;-83
2023/10/10 07:34:15;;;;;;;49.45;31.15;;;15.80;99.90;;;;;;4956918;28;20043;-84
2023/10/10 07:36:43;;;;;;;41.85;28.77;;;15.80;99.90;;;;;;4974436;28;20191;-84
2023/10/10 07:41:57;;;;;;;40.42;28.77;;;15.80;99.90;;;;;;4974786;28;20098;-83
2023/10/10 07:44:23;;;;;;;36.28;27.65;;;15.80;99.90;;;;;;4973651;28;20070;-82
2023/10/10 07:49:33;;;;;;;35.40;24.40;;;15.90;99.90;;;;;;4973387;28;20573;-82
2023/10/10 07:52:02;;;;;;;32.08;23.92;;;15.90;99.90;;;;;;4973610;28;20046;-82
2023/10/10 07:54:40;;;;;;;34.15;24.27;;;15.90;99.90;;;;;;4973766;28;20076;-82
2023/10/10 07:57:22;;;;;;;32.15;23.27;;;16.00;99.90;;;;;;4974284;28;20039;-81
2023/10/10 08:00:00;;;;;;;31.27;22.63;;;16.00;99.90;;;;;;4948069;28;20139;-80
2023/10/10 08:04:55;;;;;;;28.92;21.23;;;16.10;99.90;;;;;;4993473;28;20029;-82
2023/10/10 08:07:26;;;;;;;30.25;22.17;;;16.20;99.90;;;;;;4992121;28;20530;-81
2023/10/10 08:12:40;;;;;;;;;;;16.20;99.90;;;;;;4988855;28;20099;-82
2023/10/10 08:15:24;;;;;;;27.38;18.42;;;16.30;99.90;;;;;;4989979;28;19929;-81
2023/10/10 08:17:54;;;;;;;26.42;18.58;;;16.30;99.90;;;;;;4964628;28;20055;-82
2023/10/10 08:21:08;;;;;;;25.77;18.77;;;16.40;99.90;;;;;;4947513;28;20045;-81
2023/10/10 08:23:24;;;;;;;27.15;19.42;;;16.40;99.90;;;;;;4970386;28;20051;-82
2023/10/10 08:25:51;;;;;;;27.30;19.17;;;16.50;99.90;;;;;;4973589;28;20489;-81
2023/10/10 08:28:17;;;;;;;32.60;18.15;;;16.50;99.90;;;;;;4971885;28;20039;-81
2023/10/10 08:30:42;;;;;;;24.05;17.55;;;16.60;99.90;;;;;;4969112;28;20494;-81
2023/10/10 08:33:08;;;;;;;24.73;17.27;;;16.60;99.90;;;;;;4971956;28;20078;-82
2023/10/10 08:35:38;;;;;;;27.58;18.45;;;16.60;99.90;;;;;;4974524;28;20113;-83
2023/10/10 08:38:05;;;;;;;25.52;17.23;;;16.70;99.90;;;;;;4980555;28;20071;-82
2023/10/10 08:40:36;;;;;;;21.17;15.60;;;16.70;99.90;;;;;;4982648;28;20479;-82
2023/10/10 08:43:07;;;;;;;24.38;17.25;;;16.70;99.90;;;;;;4970741;28;20037;-81
2023/10/10 08:45:43;;;;;;;25.42;17.02;;;16.80;99.90;;;;;;4992176;28;20065;-81
2023/10/10 08:48:13;;;;;;;24.52;16.13;;;16.80;99.90;;;;;;4992356;28;20030;-82
2023/10/10 08:50:40;;;;;;;26.65;16.95;;;16.80;99.90;;;;;;4975026;28;20023;-81
2023/10/10 08:53:13;;;;;;;26.75;17.10;;;16.90;99.90;;;;;;4992430;28;20035;-82
2023/10/10 08:55:42;;;;;;;22.02;15.68;;;16.90;99.90;;;;;;4976919;28;20122;-82
2023/10/10 08:58:08;;;;;;;21.23;14.98;;;17.00;99.90;;;;;;4983299;28;20410;-83
2023/10/10 09:00:34;;;;;;;25.15;16.80;;;17.10;99.90;;;;;;4984085;28;20031;-82
2023/10/10 09:03:00;;;;;;;25.42;17.30;;;17.20;99.90;;;;;;4995140;28;20039;-83
2023/10/10 09:05:29;;;;;;;21.95;15.48;;;17.20;99.90;;;;;;4994255;28;20031;-83
2023/10/10 09:08:05;;;;;;;22.30;15.10;;;17.30;99.90;;;;;;4977220;28;20106;-83
2023/10/10 09:10:39;;;;;;;18.27;13.32;;;17.30;99.90;;;;;;4987207;28;20053;-81
2023/10/10 09:13:09;;;;;;;19.98;13.52;;;17.40;99.90;;;;;;4973656;28;20030;-83
2023/10/10 09:15:36;;;;;;;19.77;14.55;;;17.40;99.90;;;;;;4979612;28;20046;-83
2023/10/10 09:18:14;;;;;;;19.73;14.15;;;17.50;99.90;;;;;;4995473;28;20033;-82
2023/10/10 09:20:40;;;;;;;17.92;13.15;;;17.60;99.90;;;;;;4983881;28;20053;-81
2023/10/10 09:23:26;;;;;;;18.58;13.82;;;17.60;99.90;;;;;;4974059;28;20561;-82
2023/10/10 09:26:12;;;;;;;19.35;12.77;;;17.60;99.90;;;;;;4962923;28;20098;-81
2023/10/10 09:29:03;;;;;;;16.17;12.00;;;17.60;99.90;;;;;;4971148;28;20486;-81
2023/10/10 09:31:32;;;;;;;28.38;13.10;;;17.70;99.70;;;;;;4967984;28;20027;-82
2023/10/10 09:34:02;;;;;;;16.67;12.43;;;17.80;99.30;;;;;;4994958;28;20034;-81
2023/10/10 09:36:28;;;;;;;20.35;13.30;;;17.80;99.30;;;;;;4968009;28;20031;-81
2023/10/10 09:39:08;;;;;;;15.20;11.80;;;18.00;99.10;;;;;;4989577;28;20111;-82
2023/10/10 09:50:28;;;;;;;14.02;8.70;;;18.70;98.80;;;;;;4969822;28;20450;-80
2023/10/10 09:52:50;;;;;;;16.92;9.02;;;19.10;99.20;;;;;;4975491;28;20538;-83
2023/10/10 10:03:31;;;;;;;11.68;7.70;;;21.20;98.40;;;;;;4989850;28;20601;-83
2023/10/10 10:09:19;;;;;;;13.95;8.65;;;22.40;97.10;;;;;;4956542;29;20034;-82
2023/10/10 10:12:09;;;;;;;12.63;8.10;;;23.10;95.60;;;;;;4956631;29;20039;-83
2023/10/10 10:14:48;;;;;;;11.00;7.15;;;23.70;94.70;;;;;;4956192;29;20498;-83
2023/10/10 10:20:22;;;;;;;11.85;6.82;;;24.80;92.30;;;;;;4956707;29;20502;-81
2023/10/10 10:22:59;;;;;;;10.90;7.22;;;25.30;91.90;;;;;;4963901;28;20097;-83
2023/10/10 10:25:28;;;;;;;10.07;7.13;;;25.90;90.30;;;;;;4964318;28;20054;-84
2023/10/10 10:28:15;;;;;;;12.73;7.45;;;26.40;89.00;;;;;;4964719;28;20435;-85
2023/10/10 10:30:50;;;;;;;10.70;7.40;;;26.80;83.00;;;;;;4966578;28;20445;-84
2023/10/10 10:33:23;;;;;;;9.40;6.63;;;27.10;82.30;;;;;;4972063;28;20158;-81
2023/10/10 10:35:56;;;;;;;11.32;7.50;;;27.40;80.20;;;;;;4974499;28;20031;-83
2023/10/10 10:38:23;;;;;;;10.48;7.90;;;27.60;77.00;;;;;;4956066;29;20067;-82
2023/10/10 10:40:50;;;;;;;11.35;7.05;;;28.00;75.60;;;;;;4956045;29;20058;-82
2023/10/10 10:43:32;;;;;;;10.73;7.25;;;28.40;74.60;;;;;;4955965;29;20533;-81
2023/10/10 10:46:12;;;;;;;11.00;6.07;;;28.70;71.80;;;;;;4955978;29;20031;-81
2023/10/10 10:48:40;;;;;;;9.13;6.68;;;29.00;70.30;;;;;;4955861;29;20039;-83
2023/10/10 10:51:42;;;;;;;12.15;7.75;;;29.20;69.70;;;;;;4956096;29;20148;-81
2023/10/10 10:54:00;;;;;;;10.23;7.55;;;29.60;67.30;;;;;;4952386;29;20035;-82
2023/10/10 10:59:12;;;;;;;10.90;7.07;;;29.80;64.90;;;;;;4956062;29;20047;-80
2023/10/10 11:01:42;;;;;;;9.13;6.50;;;30.00;62.90;;;;;;4937909;29;20055;-82
2023/10/10 11:04:14;;;;;;;10.25;6.60;;;30.30;62.50;;;;;;4955765;29;20506;-82
2023/10/10 11:06:51;;;;;;;9.23;6.90;;;30.50;62.00;;;;;;4955742;29;20046;-82
2023/10/10 11:09:28;;;;;;;9.05;6.65;;;30.70;61.00;;;;;;4956213;29;20098;-82
2023/10/10 11:11:58;;;;;;;13.88;6.85;;;30.90;60.40;;;;;;4955605;29;20065;-81
2023/10/10 11:14:25;;;;;;;12.65;6.68;;;31.10;59.60;;;;;;4938329;29;20035;-81
2023/10/10 11:16:57;;;;;;;17.73;6.65;;;31.20;58.80;;;;;;4937910;29;20058;-82
2023/10/10 11:21:59;;;;;;;10.05;6.25;;;31.60;57.10;;;;;;4954948;29;20042;-81
2023/10/10 11:24:29;;;;;;;10.98;6.90;;;31.60;56.90;;;;;;4955226;28;20035;-83
2023/10/10 11:29:45;;;;;;;10.50;5.93;;;32.20;56.60;;;;;;4955516;29;20035;-82
2023/10/10 11:32:13;;;;;;;11.10;5.75;;;32.60;55.80;;;;;;4955148;29;20046;-81
2023/10/10 11:34:43;;;;;;;10.73;7.30;;;32.90;55.40;;;;;;4955291;29;20110;-81
2023/10/10 11:37:13;;;;;;;8.85;5.95;;;33.10;54.30;;;;;;4955135;29;20103;-81
2023/10/10 11:39:49;;;;;;;9.88;6.95;;;33.30;53.60;;;;;;4955568;29;20115;-81
2023/10/10 11:42:26;;;;;;;8.75;5.72;;;33.40;52.90;;;;;;4954997;29;20110;-82
2023/10/10 11:45:09;;;;;;;9.15;6.22;;;33.50;52.50;;;;;;4954854;29;20107;-81
2023/10/10 11:47:44;;;;;;;8.43;5.53;;;33.70;51.60;;;;;;4955185;29;20042;-81
2023/10/10 11:50:12;;;;;;;8.73;6.75;;;33.80;52.30;;;;;;4937693;29;20038;-82
2023/10/10 11:52:57;;;;;;;10.27;6.75;;;33.90;51.70;;;;;;4947379;29;20162;-82
2023/10/10 11:55:27;;;;;;;11.55;6.28;;;34.00;50.70;;;;;;4954737;29;20046;-81
2023/10/10 11:57:57;;;;;;;11.02;6.63;;;34.20;50.60;;;;;;4955105;29;20121;-82
2023/10/10 12:00:30;;;;;;;8.50;5.85;;;34.40;50.20;;;;;;4954535;29;20062;-81
2023/10/10 12:02:57;;;;;;;;;;;34.40;50.30;;;;;;4955380;29;20117;-82
2023/10/10 12:07:58;;;;;;;;;;;34.40;49.30;;;;;;4955066;29;20078;-82
2023/10/10 12:10:31;;;;;;;12.45;6.55;;;34.50;49.60;;;;;;4937671;29;19926;-83
2023/10/10 12:12:56;;;;;;;10.80;6.60;;;34.60;49.80;;;;;;4954652;29;20043;-83
2023/10/10 12:15:22;;;;;;;10.98;5.43;;;34.70;48.30;;;;;;4954800;29;20035;-82
2023/10/10 12:17:51;;;;;;;9.00;5.25;;;35.00;48.50;;;;;;4954928;29;20392;-82
2023/10/10 12:20:18;;;;;;;10.02;5.72;;;35.10;48.40;;;;;;4954860;29;20361;-82
2023/10/10 12:22:44;;;;;;;9.40;6.32;;;35.10;48.00;;;;;;4937406;29;20133;-83
2023/10/10 12:25:13;;;;;;;12.90;6.43;;;34.60;46.60;;;;;;4954813;29;20452;-82
2023/10/10 12:27:46;;;;;;;8.57;5.63;;;34.10;47.30;;;;;;4954829;29;20040;-82
2023/10/10 12:30:18;;;;;;;9.00;5.60;;;33.80;47.90;;;;;;4954641;29;20035;-82
2023/10/10 12:32:49;;;;;;;10.60;6.60;;;33.60;48.00;;;;;;4954724;29;20102;-81
2023/10/10 12:35:15;;;;;;;10.93;7.05;;;33.50;48.40;;;;;;4937378;29;20480;-81
2023/10/10 12:37:44;;;;;;;9.68;6.55;;;33.40;48.40;;;;;;4956937;29;20044;-81
2023/10/10 12:40:14;;;;;;;10.25;6.40;;;33.40;48.20;;;;;;4959817;28;20031;-81
2023/10/10 12:42:40;;;;;;;9.73;5.90;;;33.60;48.40;;;;;;4942976;28;20071;-82
2023/10/10 12:45:06;;;;;;;11.98;6.10;;;33.80;48.60;;;;;;4960076;28;20035;-81
2023/10/10 12:47:33;;;;;;;9.20;5.50;;;34.10;48.40;;;;;;4976905;28;20121;-82
2023/10/10 12:50:04;;;;;;;10.32;5.93;;;34.40;48.10;;;;;;4977061;28;20054;-81
2023/10/10 12:52:34;;;;;;;10.73;5.53;;;34.70;47.70;;;;;;4977392;28;20480;-81
2023/10/10 12:55:09;;;;;;;11.00;6.28;;;34.80;47.40;;;;;;4976716;28;20039;-81
2023/10/10 12:57:36;;;;;;;9.18;5.70;;;34.80;46.70;;;;;;4976946;28;20046;-81
2023/10/10 13:02:48;;;;;;;11.63;6.25;;;35.10;46.40;;;;;;4977392;28;20046;-82
2023/10/10 13:05:15;;;;;;;8.60;5.38;;;35.20;46.30;;;;;;4959826;28;20035;-81
2023/10/10 13:07:43;;;;;;;10.27;5.47;;;35.40;46.20;;;;;;4977190;28;20030;-82
2023/10/10 13:10:13;;;;;;;11.10;6.45;;;35.60;46.00;;;;;;4977092;28;20507;-82
2023/10/10 13:12:39;;;;;;;10.52;5.93;;;35.80;45.70;;;;;;4976794;28;20031;-81
2023/10/10 13:15:18;;;;;;;8.68;5.32;;;35.90;45.00;;;;;;4977137;28;20031;-82
2023/10/10 13:17:52;;;;;;;8.40;5.40;;;36.00;44.70;;;;;;4975431;28;20399;-82
2023/10/10 13:20:18;;;;;;;10.80;5.20;;;36.20;44.50;;;;;;4977101;28;20026;-82
2023/10/10 13:22:48;;;;;;;9.80;5.85;;;36.30;44.10;;;;;;4976645;28;20414;-75
2023/10/10 13:25:14;;;;;;;12.45;5.72;;;36.50;43.80;;;;;;4976537;28;20035;-81
2023/10/10 13:27:39;;;;;;;10.35;6.03;;;36.50;43.40;;;;;;4976545;28;20049;-81
2023/10/10 13:30:06;;;;;;;10.13;5.53;;;36.20;43.20;;;;;;4977018;28;20122;-81
2023/10/10 13:32:32;;;;;;;8.88;5.07;;;35.80;43.20;;;;;;4976733;28;20039;-81
2023/10/10 13:34:57;;;;;;;10.45;5.95;;;35.20;43.60;;;;;;4959350;28;20039;-80
2023/10/10 13:37:23;;;;;;;9.13;5.38;;;34.70;44.00;;;;;;4976383;28;20123;-81
2023/10/10 13:39:49;;;;;;;14.18;5.32;;;34.40;44.40;;;;;;4976130;28;20046;-81
2023/10/10 13:42:14;;;;;;;9.80;5.82;;;33.90;44.40;;;;;;4976577;28;20046;-79
2023/10/10 13:44:41;;;;;;;9.38;5.75;;;33.40;45.40;;;;;;4959221;28;20040;-81
2023/10/10 13:47:07;;;;;;;9.40;5.32;;;32.90;45.20;;;;;;4958837;28;20030;-81
2023/10/10 13:49:34;;;;;;;9.80;5.53;;;32.50;45.80;;;;;;4976119;28;20066;-81
2023/10/10 13:52:10;;;;;;;9.32;5.88;;;32.20;46.10;;;;;;4976174;28;20031;-81
2023/10/10 13:54:35;;;;;;;8.32;5.00;;;31.90;46.50;;;;;;4976027;28;20045;-80
2023/10/10 13:57:01;;;;;;;9.35;4.97;;;31.90;47.10;;;;;;4958571;28;20030;-80
2023/10/10 13:59:27;;;;;;;10.02;4.80;;;32.30;47.10;;;;;;4976247;28;20066;-81
2023/10/10 14:01:54;;;;;;;9.80;5.30;;;32.80;47.00;;;;;;4975977;28;20039;-80
2023/10/10 14:04:29;;;;;;;8.75;4.65;;;33.30;46.50;;;;;;4976104;28;20487;-81
2023/10/10 14:07:00;;;;;;;10.45;5.03;;;33.40;46.20;;;;;;4958747;28;20046;-81
2023/10/10 14:09:31;;;;;;;9.55;4.85;;;33.40;46.70;;;;;;4975597;28;20035;-81
2023/10/10 14:12:02;;;;;;;9.20;4.63;;;33.10;46.00;;;;;;4958836;28;20035;-81
2023/10/10 14:14:28;;;;;;;11.65;4.88;;;32.70;46.10;;;;;;4975797;28;20050;-81
2023/10/10 14:16:54;;;;;;;11.45;5.72;;;32.10;46.50;;;;;;4976063;28;20070;-80
2023/10/10 14:19:28;;;;;;;9.60;5.00;;;31.40;47.00;;;;;;4975951;28;20122;-81
2023/10/10 14:21:54;;;;;;;9.10;4.60;;;30.80;47.70;;;;;;4975869;28;20118;-81
2023/10/10 14:24:20;;;;;;;11.25;4.60;;;30.30;48.50;;;;;;4957789;28;20623;-81
2023/10/10 14:26:48;;;;;;;9.40;4.50;;;29.90;49.20;;;;;;4975645;28;20475;-81
2023/10/10 14:29:14;;;;;;;9.45;5.38;;;29.50;49.70;;;;;;4958927;28;20035;-82
2023/10/10 14:31:48;;;;;;;9.20;4.60;;;29.10;50.30;;;;;;4975666;28;20440;-82
2023/10/10 14:34:25;;;;;;;9.75;4.90;;;28.90;50.90;;;;;;4975451;28;20035;-81
2023/10/10 14:36:53;;;;;;;10.35;4.50;;;28.80;51.30;;;;;;4957559;28;20049;-80
2023/10/10 14:39:28;;;;;;;9.88;4.80;;;28.80;51.70;;;;;;4975201;28;20031;-81
2023/10/10 14:41:57;;;;;;;7.80;3.80;;;29.00;51.90;;;;;;4975332;28;20039;-79
2023/10/10 14:44:26;;;;;;;10.20;5.03;;;29.20;51.90;;;;;;4975709;28;20050;-81
2023/10/10 14:46:54;;;;;;;9.65;4.28;;;29.30;52.00;;;;;;4958152;28;20035;-80
2023/10/10 14:49:28;;;;;;;8.75;4.68;;;29.40;51.90;;;;;;4974590;28;20050;-81
2023/10/10 14:51:56;;;;;;;10.38;4.40;;;29.60;52.10;;;;;;4957891;28;20039;-80
2023/10/10 14:54:23;;;;;;;10.43;4.25;;;29.90;52.10;;;;;;4957510;28;20397;-82
2023/10/10 14:56:51;;;;;;;9.40;4.82;;;30.20;51.90;;;;;;4957669;28;20122;-82
2023/10/10 14:59:24;;;;;;;6.72;3.83;;;30.50;51.60;;;;;;4974417;28;20039;-81
2023/10/10 15:01:50;;;;;;;10.80;4.82;;;30.90;51.30;;;;;;4974825;28;20042;-81
2023/10/10 15:04:17;;;;;;;8.23;4.45;;;31.20;50.60;;;;;;4975306;28;20491;-82
2023/10/10 15:06:44;;;;;;;7.60;4.15;;;31.40;50.10;;;;;;4957569;28;20474;-81
2023/10/10 15:09:14;;;;;;;10.55;5.28;;;31.20;49.30;;;;;;4974930;28;20479;-82
2023/10/10 15:11:41;;;;;;;13.20;4.57;;;30.80;48.50;;;;;;4974881;28;20503;-82
2023/10/10 15:14:09;;;;;;;12.45;4.85;;;30.30;48.20;;;;;;4974591;28;20495;-82
2023/10/10 15:16:36;;;;;;;10.73;3.95;;;29.90;48.60;;;;;;4957331;28;20031;-81
2023/10/10 15:19:08;;;;;;;9.60;4.13;;;29.60;49.20;;;;;;4974631;28;20035;-82
2023/10/10 15:21:38;;;;;;;9.02;3.95;;;29.70;49.40;;;;;;4974746;28;20105;-82
2023/10/10 15:24:11;;;;;;;7.15;3.42;;;29.90;49.10;;;;;;4974611;28;20050;-82
2023/10/10 15:26:38;;;;;;;10.30;3.70;;;30.10;48.90;;;;;;4974822;28;20463;-81
2023/10/10 15:29:04;;;;;;;9.40;3.85;;;30.40;48.60;;;;;;4957097;28;20503;-82
2023/10/10 15:31:31;;;;;;;8.43;4.05;;;30.60;48.40;;;;;;4941613;28;20035;-82
2023/10/10 15:33:57;;;;;;;9.52;3.30;;;30.60;48.30;;;;;;4974611;28;20034;-82
2023/10/10 15:36:30;;;;;;;7.20;3.38;;;30.40;48.90;;;;;;4956927;28;20214;-82
2023/10/10 15:39:03;;;;;;;9.02;3.72;;;30.10;48.40;;;;;;4974274;28;20035;-81
2023/10/10 15:41:31;;;;;;;7.03;4.35;;;29.60;48.80;;;;;;4974363;28;20123;-81
2023/10/10 15:44:02;;;;;;;7.35;3.90;;;29.20;49.40;;;;;;4956856;28;20026;-80
2023/10/10 15:46:32;;;;;;;8.10;3.78;;;28.90;50.00;;;;;;4974448;28;20062;-82
2023/10/10 15:48:59;;;;;;;10.70;3.67;;;28.70;50.40;;;;;;4974120;28;20067;-82
2023/10/10 15:51:26;;;;;;;8.98;3.63;;;28.40;50.80;;;;;;4956457;28;20459;-82
2023/10/10 15:53:54;;;;;;;8.63;4.20;;;28.10;51.10;;;;;;4974172;28;20093;-81
2023/10/10 15:56:27;;;;;;;7.43;3.55;;;27.90;51.60;;;;;;4956864;28;20038;-81
2023/10/10 15:58:53;;;;;;;7.30;3.57;;;27.60;51.90;;;;;;4974543;28;20031;-82
2023/10/10 16:01:23;;;;;;;7.28;3.28;;;27.30;52.20;;;;;;4956797;28;20043;-83
2023/10/10 16:03:52;;;;;;;7.35;3.78;;;27.00;52.50;;;;;;4974315;28;20038;-82
2023/10/10 16:06:25;;;;;;;11.02;3.33;;;26.80;52.80;;;;;;4956171;28;20395;-81